createdAt,value
2019-02-14T00:01:51.023Z,45.88
2019-02-14T00:04:22.442Z,50.50
2019-02-14T00:06:51.094Z,44.55
2019-02-14T00:09:21.278Z,49.80
2019-02-14T00:11:49.569Z,48.60
2019-02-14T00:14:17.847Z,45.63
2019-02-14T00:16:46.107Z,43.58
2019-02-14T00:19:14.406Z,51.30
2019-02-14T00:21:42.722Z,50.12
2019-02-14T00:24:11.011Z,46.10
2019-02-14T00:26:39.293Z,45.70
2019-02-14T00:29:07.564Z,48.95
2019-02-14T00:31:35.862Z,49.93
2019-02-14T00:34:04.150Z,47.78
2019-02-14T00:36:32.411Z,49.13
2019-02-14T00:39:00.695Z,46.68
2019-02-14T00:41:28.963Z,44.48
2019-02-14T00:43:57.219Z,50.30
2019-02-14T00:46:25.511Z,48.75
2019-02-14T00:48:53.807Z,48.35
2019-02-14T00:51:22.091Z,42.70
2019-02-14T00:53:50.347Z,47.78
2019-02-14T00:56:18.655Z,49.15
2019-02-14T00:58:46.913Z,46.42
2019-02-14T01:01:15.200Z,43.73
2019-02-14T01:03:43.471Z,47.43
2019-02-14T01:06:11.749Z,45.48
2019-02-14T01:08:39.993Z,48.63
2019-02-14T01:11:08.323Z,46.70
2019-02-14T01:13:36.593Z,45.50
2019-02-14T01:16:05.232Z,50.73
2019-02-14T01:18:33.480Z,49.23
2019-02-14T01:21:01.760Z,44.48
2019-02-14T01:23:30.060Z,46.77
2019-02-14T01:25:58.338Z,50.92
2019-02-14T01:28:26.603Z,52.48
2019-02-14T01:30:54.896Z,51.77
2019-02-14T01:33:23.153Z,49.93
2019-02-14T01:35:51.438Z,50.63
2019-02-14T01:38:19.720Z,50.12
2019-02-14T01:40:47.988Z,53.90
2019-02-14T01:43:16.262Z,48.30
2019-02-14T01:45:44.544Z,52.17
2019-02-14T01:48:13.052Z,57.38
2019-02-14T01:50:41.350Z,51.80
2019-02-14T01:53:09.598Z,49.23
2019-02-14T01:55:37.882Z,53.98
2019-02-14T01:58:06.225Z,56.92
2019-02-14T02:00:34.580Z,54.25
2019-02-14T02:03:02.842Z,57.50
2019-02-14T02:05:31.128Z,55.25
2019-02-14T02:07:59.399Z,56.15
2019-02-14T02:10:27.700Z,54.23
2019-02-14T02:12:56.028Z,56.02
2019-02-14T02:15:24.298Z,56.25
2019-02-14T02:17:52.664Z,56.18
2019-02-14T02:20:20.935Z,52.73
2019-02-14T02:22:49.244Z,51.40
2019-02-14T02:25:17.518Z,59.23
2019-02-14T02:27:45.800Z,54.38
2019-02-14T02:30:15.242Z,60.70
2019-02-14T02:32:43.510Z,57.27
2019-02-14T02:35:11.784Z,56.00
2019-02-14T02:37:40.064Z,56.63
2019-02-14T02:40:09.185Z,57.43
2019-02-14T02:42:37.464Z,58.23
2019-02-14T02:45:29.721Z,52.67
2019-02-14T02:47:58.004Z,52.65
2019-02-14T02:50:26.257Z,56.65
2019-02-14T02:52:54.556Z,55.67
2019-02-14T02:55:22.874Z,54.67
2019-02-14T02:57:51.167Z,55.63
2019-02-14T03:00:19.449Z,56.20
2019-02-14T03:02:47.741Z,52.48
2019-02-14T03:05:16.276Z,58.23
2019-02-14T03:07:44.562Z,53.17
2019-02-14T03:10:13.773Z,56.83
2019-02-14T03:12:42.059Z,58.73
2019-02-14T03:15:14.856Z,51.55
2019-02-14T03:17:43.236Z,47.35
2019-02-14T03:20:12.727Z,56.00
2019-02-14T03:22:41.027Z,56.33
2019-02-14T03:25:19.988Z,55.73
2019-02-14T03:27:48.278Z,55.17
2019-02-14T03:30:16.940Z,54.65
2019-02-14T03:32:45.236Z,56.35
2019-02-14T03:35:13.509Z,55.23
2019-02-14T03:41:13.691Z,57.00
2019-02-14T03:43:41.949Z,58.17
2019-02-14T03:46:11.885Z,59.15
2019-02-14T03:48:40.171Z,56.68
2019-02-14T03:51:08.453Z,58.23
2019-02-14T03:53:36.733Z,61.20
2019-02-14T03:56:04.992Z,53.68
2019-02-14T03:58:33.283Z,53.90
2019-02-14T04:01:01.547Z,60.05
2019-02-14T04:03:29.836Z,58.52
2019-02-14T04:05:58.106Z,61.53
2019-02-14T04:08:26.397Z,62.20
2019-02-14T04:10:54.709Z,59.77
2019-02-14T04:13:23.299Z,60.30
2019-02-14T04:15:51.553Z,58.75
2019-02-14T04:18:19.851Z,62.53
2019-02-14T04:20:48.114Z,57.80
2019-02-14T04:23:16.436Z,60.75
2019-02-14T04:25:44.683Z,59.67
2019-02-14T04:28:12.947Z,61.90
2019-02-14T04:30:41.223Z,60.90
2019-02-14T04:33:09.497Z,59.50
2019-02-14T04:35:37.762Z,62.00
2019-02-14T04:38:06.047Z,58.68
2019-02-14T04:40:34.314Z,62.50
2019-02-14T04:43:02.623Z,62.38
2019-02-14T04:45:30.882Z,56.40
2019-02-14T04:47:59.168Z,60.70
2019-02-14T04:50:27.484Z,54.15
2019-02-14T04:52:55.761Z,58.78
2019-02-14T04:55:24.014Z,59.48
2019-02-14T04:57:52.304Z,58.73
2019-02-14T05:00:20.607Z,60.75
2019-02-14T05:02:48.903Z,62.48
2019-02-14T05:05:17.588Z,62.60
2019-02-14T05:07:45.890Z,62.00
2019-02-14T05:10:14.138Z,60.80
2019-02-14T05:12:42.551Z,62.20
2019-02-14T05:15:11.365Z,58.05
2019-02-14T05:17:39.664Z,62.35
2019-02-14T05:20:10.840Z,64.87
2019-02-14T05:22:39.108Z,66.90
2019-02-14T05:25:10.378Z,61.18
2019-02-14T05:27:38.878Z,62.43
2019-02-14T05:30:13.129Z,60.12
2019-02-14T05:32:41.414Z,62.27
2019-02-14T05:35:09.702Z,58.55
2019-02-14T05:37:39.735Z,63.70
2019-02-14T05:40:10.896Z,64.58
2019-02-14T05:42:39.553Z,62.80
2019-02-14T05:45:12.919Z,62.50
2019-02-14T05:47:41.210Z,64.67
2019-02-14T05:50:12.072Z,65.75
2019-02-14T05:52:40.336Z,60.70
2019-02-14T05:55:10.596Z,63.60
2019-02-14T05:57:38.855Z,63.13
2019-02-14T06:00:10.546Z,64.32
2019-02-14T06:02:38.800Z,65.03
2019-02-14T06:05:07.105Z,62.98
2019-02-14T06:07:35.407Z,58.20
2019-02-14T06:10:04.808Z,59.40
2019-02-14T06:12:33.167Z,65.17
2019-02-14T06:15:01.466Z,69.35
2019-02-14T06:17:29.748Z,62.53
2019-02-14T06:19:58.051Z,66.72
2019-02-14T06:22:26.318Z,69.25
2019-02-14T06:24:54.601Z,63.98
2019-02-14T06:27:22.897Z,69.67
2019-02-14T06:29:51.226Z,66.30
2019-02-14T06:32:19.497Z,65.92
2019-02-14T06:34:47.807Z,66.00
2019-02-14T06:37:16.055Z,62.88
2019-02-14T06:39:44.331Z,63.17
2019-02-14T06:42:12.763Z,65.40
2019-02-14T06:44:41.062Z,64.58
2019-02-14T06:47:09.536Z,67.72
2019-02-14T06:49:37.841Z,63.42
2019-02-14T06:52:06.169Z,59.83
2019-02-14T06:54:35.863Z,62.98
2019-02-14T06:57:04.134Z,58.52
2019-02-14T06:59:32.431Z,67.17
2019-02-14T07:02:00.707Z,63.23
2019-02-14T07:04:28.995Z,63.02
2019-02-14T07:06:57.259Z,66.02
2019-02-14T07:09:25.537Z,65.62
2019-02-14T07:11:53.825Z,63.25
2019-02-14T07:14:22.135Z,64.87
2019-02-14T07:16:50.406Z,62.13
2019-02-14T07:19:18.701Z,64.97
2019-02-14T07:21:49.702Z,67.82
2019-02-14T07:24:18.057Z,61.90
2019-02-14T07:26:46.327Z,64.27
2019-02-14T07:29:14.715Z,62.75
2019-02-14T07:31:42.989Z,59.20
2019-02-14T07:34:14.449Z,61.50
2019-02-14T07:36:42.740Z,61.33
2019-02-14T07:39:11.184Z,61.75
2019-02-14T07:41:39.459Z,66.00
2019-02-14T07:44:10.470Z,64.12
2019-02-14T07:46:40.381Z,64.00
2019-02-14T07:49:08.655Z,61.02
2019-02-14T07:51:37.003Z,62.23
2019-02-14T07:54:05.251Z,58.60
2019-02-14T07:56:33.543Z,62.93
2019-02-14T07:59:01.812Z,60.05
2019-02-14T08:01:30.091Z,61.75
2019-02-14T08:03:58.379Z,63.35
2019-02-14T08:06:29.641Z,65.40
2019-02-14T08:08:57.910Z,63.35
2019-02-14T08:11:26.195Z,64.97
2019-02-14T08:13:55.725Z,60.40
2019-02-14T08:16:23.941Z,56.15
2019-02-14T08:18:52.264Z,59.85
2019-02-14T08:21:20.532Z,60.98
2019-02-14T08:23:48.803Z,57.20
2019-02-14T08:26:17.055Z,58.05
2019-02-14T08:28:45.381Z,62.80
2019-02-14T08:31:13.880Z,67.40
2019-02-14T08:33:42.164Z,64.75
2019-02-14T08:36:10.410Z,64.12
2019-02-14T08:38:38.687Z,62.05
2019-02-14T08:41:08.989Z,62.43
2019-02-14T08:43:37.288Z,63.63
2019-02-14T08:46:07.646Z,61.85
2019-02-14T08:48:35.898Z,60.03
2019-02-14T08:51:04.163Z,57.08
2019-02-14T08:53:32.460Z,57.62
2019-02-14T08:56:00.727Z,60.88
2019-02-14T08:58:29.003Z,63.42
2019-02-14T09:00:57.264Z,62.53
2019-02-14T09:03:25.585Z,62.67
2019-02-14T09:05:53.842Z,52.67
2019-02-14T09:08:22.206Z,63.45
2019-02-14T09:10:50.417Z,64.17
2019-02-14T09:13:18.761Z,53.17
2019-02-14T09:15:47.017Z,59.90
2019-02-14T09:18:18.417Z,61.28
2019-02-14T09:20:46.694Z,56.83
2019-02-14T09:23:14.921Z,57.95
2019-02-14T09:25:43.473Z,58.38
2019-02-14T09:28:12.072Z,59.15
2019-02-14T09:30:40.714Z,59.15
2019-02-14T09:33:10.717Z,53.33
2019-02-14T09:35:39.275Z,52.10
2019-02-14T09:38:07.951Z,53.85
2019-02-14T09:40:37.943Z,52.83
2019-02-14T09:43:06.527Z,52.67
2019-02-14T09:45:35.092Z,58.50
2019-02-14T09:48:03.546Z,56.60
2019-02-14T09:50:31.822Z,52.60
2019-02-14T09:53:02.081Z,52.40
2019-02-14T09:55:30.364Z,55.65
2019-02-14T09:57:58.628Z,52.75
2019-02-14T10:00:26.906Z,55.08
2019-02-14T10:02:55.170Z,50.40
2019-02-14T10:05:23.447Z,49.88
2019-02-14T10:07:51.696Z,51.60
2019-02-14T10:10:21.618Z,53.78
2019-02-14T10:12:49.883Z,50.00
2019-02-14T10:15:18.167Z,50.60
2019-02-14T10:17:46.415Z,54.18
2019-02-14T10:20:17.256Z,54.50
2019-02-14T10:22:45.566Z,53.28
2019-02-14T10:25:14.167Z,53.28
2019-02-14T10:27:42.412Z,49.13
2019-02-14T10:30:13.437Z,51.92
2019-02-14T10:32:41.697Z,54.05
2019-02-14T10:35:09.968Z,48.65
2019-02-14T10:37:38.214Z,50.33
2019-02-14T10:40:12.066Z,51.58
2019-02-14T10:42:40.361Z,52.93
2019-02-14T10:45:16.584Z,49.85
2019-02-14T10:47:44.855Z,51.33
2019-02-14T10:50:13.136Z,50.17
2019-02-14T10:52:41.407Z,52.75
2019-02-14T10:55:11.718Z,56.15
2019-02-14T10:57:39.981Z,49.35
2019-02-14T11:00:17.308Z,50.12
2019-02-14T11:02:45.941Z,50.23
2019-02-14T11:05:14.959Z,55.43
2019-02-14T11:07:45.934Z,53.60
2019-02-14T11:10:18.069Z,50.67
2019-02-14T11:12:46.353Z,50.95
2019-02-14T11:15:21.852Z,48.75
2019-02-14T11:17:50.146Z,49.67
2019-02-14T11:20:18.422Z,47.60
2019-02-14T11:22:48.800Z,46.10
2019-02-14T11:25:19.795Z,44.53
2019-02-14T11:27:48.053Z,49.42
2019-02-14T11:30:16.411Z,41.63
2019-02-14T11:32:44.741Z,42.25
2019-02-14T11:35:13.014Z,43.87
2019-02-14T11:37:41.268Z,43.70
2019-02-14T11:40:11.600Z,45.60
2019-02-14T11:42:39.867Z,42.25
2019-02-14T11:45:22.353Z,41.80
2019-02-14T11:47:50.610Z,41.68
2019-02-14T11:50:19.029Z,38.15
2019-02-14T11:52:47.278Z,45.83
2019-02-14T11:55:15.552Z,38.53
2019-02-14T11:57:44.186Z,40.40
2019-02-14T12:00:18.830Z,39.08
2019-02-14T12:02:55.129Z,39.23
2019-02-14T12:05:17.651Z,37.38
2019-02-14T12:07:45.913Z,38.23
2019-02-14T12:10:14.550Z,36.77
2019-02-14T12:12:42.819Z,38.58
2019-02-14T12:15:12.326Z,40.15
2019-02-14T12:17:40.581Z,38.48
2019-02-14T12:20:14.066Z,38.65
2019-02-14T12:22:46.636Z,37.53
2019-02-14T12:25:15.175Z,36.85
2019-02-14T12:27:43.429Z,36.73
2019-02-14T12:30:13.640Z,36.50
2019-02-14T12:32:44.005Z,36.13
2019-02-14T12:35:12.269Z,35.50
2019-02-14T12:37:40.533Z,32.63
2019-02-14T12:40:13.642Z,34.03
2019-02-14T12:42:41.981Z,33.23
2019-02-14T12:45:20.544Z,32.75
2019-02-14T12:47:45.917Z,33.55
2019-02-14T12:50:14.200Z,31.57
2019-02-14T12:52:42.478Z,33.33
2019-02-14T12:55:10.755Z,33.33
2019-02-14T12:57:44.061Z,32.63
2019-02-14T13:00:19.492Z,30.60
2019-02-14T13:02:47.779Z,28.32
2019-02-14T13:05:16.068Z,27.93
2019-02-14T13:07:44.333Z,27.37
2019-02-14T13:10:36.337Z,24.12
2019-02-14T13:13:04.593Z,20.05
2019-02-14T13:15:32.863Z,20.32
2019-02-14T13:18:01.153Z,19.73
2019-02-14T13:20:29.424Z,20.17
2019-02-14T13:22:57.720Z,19.98
2019-02-14T13:25:26.001Z,21.42
2019-02-14T13:27:54.328Z,22.93
2019-02-14T13:30:26.956Z,19.50
2019-02-14T13:32:55.236Z,20.45
2019-02-14T13:35:23.490Z,20.88
2019-02-14T13:37:51.800Z,18.50
2019-02-14T13:40:20.051Z,18.23
2019-02-14T13:42:48.386Z,18.80
2019-02-14T13:45:22.196Z,18.23
2019-02-14T13:47:50.471Z,19.85
2019-02-14T13:50:18.735Z,18.55
2019-02-14T13:52:47.099Z,17.40
2019-02-14T13:55:15.349Z,17.62
2019-02-14T13:57:44.027Z,18.45
2019-02-14T14:00:18.237Z,17.02
2019-02-14T14:02:46.509Z,18.75
2019-02-14T14:05:14.762Z,17.90
2019-02-14T14:07:43.061Z,19.23
2019-02-14T14:10:11.331Z,20.72
2019-02-14T14:12:39.589Z,18.42
2019-02-14T14:15:09.487Z,18.85
2019-02-14T14:17:37.759Z,18.37
2019-02-14T14:20:07.473Z,19.23
2019-02-14T14:22:35.756Z,16.40
2019-02-14T14:25:05.261Z,19.95
2019-02-14T14:27:33.532Z,19.02
2019-02-14T14:30:01.806Z,18.35
2019-02-14T14:32:30.072Z,18.45
2019-02-14T14:34:58.361Z,18.07
2019-02-14T14:37:26.613Z,20.27
2019-02-14T14:39:54.884Z,17.52
2019-02-14T14:42:41.260Z,18.10
2019-02-14T14:45:11.172Z,17.80
2019-02-14T14:47:39.450Z,17.87
2019-02-14T14:50:08.283Z,18.77
2019-02-14T14:52:36.604Z,18.27
2019-02-14T14:55:05.754Z,17.32
2019-02-14T14:57:34.021Z,16.37
2019-02-14T15:00:02.285Z,18.30
2019-02-14T15:02:30.542Z,17.50
2019-02-14T15:04:58.811Z,19.23
2019-02-14T15:07:27.072Z,19.17
2019-02-14T15:09:57.614Z,18.05
2019-02-14T15:12:25.342Z,17.52
2019-02-14T15:14:53.615Z,17.73
2019-02-14T15:17:21.872Z,16.93
2019-02-14T15:19:50.149Z,16.07
2019-02-14T15:22:18.420Z,16.60
2019-02-14T15:24:46.718Z,17.27
2019-02-14T15:27:14.994Z,16.45
2019-02-14T15:29:43.430Z,17.50
2019-02-14T15:32:11.694Z,19.05
2019-02-14T15:34:39.969Z,21.10
2019-02-14T15:40:49.218Z,17.90
2019-02-14T15:43:17.478Z,19.82
2019-02-14T15:45:45.956Z,17.10
2019-02-14T15:48:50.846Z,16.80
2019-02-14T15:51:21.212Z,19.55
2019-02-14T15:53:49.494Z,19.48
2019-02-14T15:56:17.783Z,19.45
2019-02-14T15:58:46.124Z,18.10
2019-02-14T16:01:16.577Z,18.70
2019-02-14T16:03:48.074Z,19.65
2019-02-14T16:06:17.990Z,16.87
2019-02-14T16:08:47.166Z,19.07
2019-02-14T16:11:25.066Z,17.90
2019-02-14T16:13:54.961Z,17.62
2019-02-14T16:16:26.103Z,18.12
2019-02-14T16:18:54.384Z,18.80
2019-02-14T16:21:22.737Z,18.45
2019-02-14T16:23:52.938Z,19.00
2019-02-14T16:26:21.045Z,19.15
2019-02-14T16:28:49.305Z,18.25
2019-02-14T16:31:17.640Z,18.25
2019-02-14T16:33:47.967Z,19.48
2019-02-14T16:36:16.255Z,18.57
2019-02-14T16:38:44.522Z,19.75
2019-02-14T16:41:12.803Z,21.65
2019-02-14T16:43:41.059Z,19.00
2019-02-14T16:46:09.367Z,23.38
2019-02-14T16:48:37.629Z,20.82
2019-02-14T16:51:05.905Z,18.80
2019-02-14T16:53:34.152Z,16.45
2019-02-14T16:56:05.302Z,19.45
2019-02-14T16:58:33.607Z,19.27
2019-02-14T17:01:01.864Z,21.10
2019-02-14T17:03:30.152Z,19.35
2019-02-14T17:05:58.634Z,18.82
2019-02-14T17:08:26.862Z,19.80
2019-02-14T17:10:55.153Z,18.73
2019-02-14T17:13:23.448Z,21.62
2019-02-14T17:15:56.066Z,20.77
2019-02-14T17:18:24.384Z,19.35
2019-02-14T17:20:52.671Z,19.37
2019-02-14T17:23:20.930Z,20.97
2019-02-14T17:25:49.222Z,21.35
2019-02-14T17:28:17.486Z,19.85
2019-02-14T17:30:45.766Z,20.70
2019-02-14T17:33:14.040Z,23.22
2019-02-14T17:35:42.396Z,20.32
2019-02-14T17:38:10.676Z,20.90
2019-02-14T17:40:45.741Z,19.27
2019-02-14T17:43:08.946Z,22.20
2019-02-14T17:45:37.239Z,23.40
2019-02-14T17:48:05.503Z,19.77
2019-02-14T17:50:33.763Z,20.88
2019-02-14T17:53:02.047Z,18.48
2019-02-14T17:55:30.316Z,20.80
2019-02-14T17:57:58.599Z,20.45
2019-02-14T18:00:27.943Z,22.50
2019-02-14T18:02:56.231Z,21.62
2019-02-14T18:05:24.504Z,22.87
2019-02-14T18:07:52.791Z,22.37
2019-02-14T18:10:21.055Z,22.30
2019-02-14T18:12:49.306Z,21.85
2019-02-14T18:15:19.815Z,21.87
2019-02-14T18:17:48.107Z,21.57
2019-02-14T18:20:16.370Z,23.80
2019-02-14T18:22:44.664Z,21.25
2019-02-14T18:25:13.110Z,21.12
2019-02-14T18:27:41.464Z,25.90
2019-02-14T18:30:13.031Z,22.98
2019-02-14T18:32:41.330Z,21.87
2019-02-14T18:35:13.395Z,24.05
2019-02-14T18:37:41.684Z,25.50
2019-02-14T18:40:11.047Z,25.40
2019-02-14T18:42:42.138Z,23.57
2019-02-14T18:45:12.454Z,24.07
2019-02-14T18:47:40.721Z,23.18
2019-02-14T18:50:11.915Z,24.05
2019-02-14T18:52:40.193Z,22.98
2019-02-14T18:55:10.105Z,21.75
2019-02-14T18:57:38.376Z,20.43
2019-02-14T19:00:10.630Z,21.80
2019-02-14T19:02:38.973Z,24.47
2019-02-14T19:05:09.613Z,21.27
2019-02-14T19:07:37.888Z,24.70
2019-02-14T19:10:09.420Z,25.48
2019-02-14T19:12:37.697Z,23.67
2019-02-14T19:15:08.296Z,23.30
2019-02-14T19:17:36.727Z,23.47
2019-02-14T19:20:08.023Z,22.95
2019-02-14T19:22:36.311Z,24.35
2019-02-14T19:25:05.600Z,23.20
2019-02-14T19:27:33.944Z,25.08
2019-02-14T19:30:02.216Z,25.10
2019-02-14T19:32:30.506Z,24.85
2019-02-14T19:34:58.782Z,24.43
2019-02-14T19:37:27.064Z,23.38
2019-02-14T19:39:55.334Z,25.20
2019-02-14T19:42:23.674Z,24.72
2019-02-14T19:44:51.959Z,24.92
2019-02-14T19:47:20.237Z,24.05
2019-02-14T19:49:48.582Z,24.77
2019-02-14T19:52:16.855Z,24.40
2019-02-14T19:54:45.113Z,25.80
2019-02-14T19:57:13.470Z,24.55
2019-02-14T19:59:41.747Z,25.20
2019-02-14T20:02:10.098Z,26.42
2019-02-14T20:04:43.093Z,24.43
2019-02-14T20:07:11.352Z,22.90
2019-02-14T20:09:41.508Z,22.82
2019-02-14T20:12:09.664Z,23.12
2019-02-14T20:14:37.972Z,22.62
2019-02-14T20:17:07.104Z,23.15
2019-02-14T20:19:35.424Z,20.25
2019-02-14T20:22:03.721Z,22.42
2019-02-14T20:24:32.021Z,23.45
2019-02-14T20:27:00.298Z,23.52
2019-02-14T20:29:28.573Z,21.95
2019-02-14T20:31:56.848Z,21.75
2019-02-14T20:34:25.135Z,25.27
2019-02-14T20:36:53.409Z,26.85
2019-02-14T20:39:21.760Z,23.20
2019-02-14T20:41:50.033Z,24.43
2019-02-14T20:44:18.668Z,22.85
2019-02-14T20:46:46.938Z,22.98
2019-02-14T20:49:15.216Z,21.85
2019-02-14T20:51:43.500Z,26.05
2019-02-14T20:54:11.803Z,24.63
2019-02-14T20:56:40.093Z,23.05
2019-02-14T20:59:08.377Z,23.62
2019-02-14T21:01:38.325Z,22.00
2019-02-14T21:04:06.605Z,23.40
2019-02-14T21:06:34.893Z,23.07
2019-02-14T21:09:04.457Z,25.20
2019-02-14T21:11:36.346Z,24.18
2019-02-14T21:14:04.614Z,26.05
2019-02-14T21:16:32.899Z,25.08
2019-02-14T21:19:01.195Z,24.72
2019-02-14T21:21:29.452Z,24.57
2019-02-14T21:23:59.858Z,26.97
2019-02-14T21:26:27.942Z,25.72
2019-02-14T21:28:56.242Z,25.92
2019-02-14T21:31:24.530Z,26.75
2019-02-14T21:33:54.409Z,26.55
2019-02-14T21:36:24.111Z,22.37
2019-02-14T21:38:52.369Z,26.00
2019-02-14T21:41:22.310Z,27.15
2019-02-14T21:43:50.640Z,23.65
2019-02-14T21:46:19.056Z,25.05
2019-02-14T21:48:47.312Z,22.87
2019-02-14T21:51:15.595Z,24.65
2019-02-14T21:53:43.882Z,26.70
2019-02-14T21:56:15.076Z,25.75
2019-02-14T21:58:43.341Z,24.02
2019-02-14T22:01:12.195Z,25.43
2019-02-14T22:03:43.426Z,24.43
2019-02-14T22:06:11.715Z,21.90
2019-02-14T22:08:41.791Z,23.18
2019-02-14T22:11:12.818Z,25.25
2019-02-14T22:13:43.205Z,25.65
2019-02-14T22:16:11.088Z,22.55
2019-02-14T22:18:42.583Z,22.58
2019-02-14T22:21:10.943Z,21.35
2019-02-14T22:23:40.934Z,22.73
2019-02-14T22:26:10.841Z,24.60
2019-02-14T22:28:39.124Z,23.00
2019-02-14T22:31:08.143Z,23.38
2019-02-14T22:33:37.496Z,24.52
2019-02-14T22:36:06.778Z,23.07
2019-02-14T22:38:36.694Z,23.30
2019-02-14T22:41:05.358Z,26.10
2019-02-14T22:43:33.613Z,25.72
2019-02-14T22:46:03.718Z,24.65
2019-02-14T22:48:32.050Z,25.08
2019-02-14T22:51:00.519Z,23.87
2019-02-14T22:53:28.834Z,22.60
2019-02-14T22:55:57.065Z,23.57
2019-02-14T22:58:25.333Z,24.77
2019-02-14T23:00:55.900Z,24.12
2019-02-14T23:03:27.814Z,24.82
2019-02-14T23:05:56.042Z,23.15
2019-02-14T23:11:56.325Z,23.80
2019-02-14T23:14:24.583Z,24.50
2019-02-14T23:16:52.960Z,24.57
2019-02-14T23:19:21.223Z,23.38
2019-02-14T23:21:53.962Z,24.40
2019-02-14T23:24:22.232Z,24.35
2019-02-14T23:30:22.395Z,26.42
2019-02-14T23:32:50.663Z,25.35
2019-02-14T23:35:18.931Z,21.48
2019-02-14T23:37:47.240Z,24.12
2019-02-14T23:40:15.499Z,25.32
2019-02-14T23:42:43.783Z,21.52
2019-02-14T23:45:12.061Z,24.77
2019-02-14T23:47:40.337Z,25.35
2019-02-14T23:50:10.721Z,25.88
2019-02-14T23:52:38.997Z,26.15
2019-02-14T23:55:08.990Z,25.77
2019-02-14T23:57:37.300Z,24.95
